createdAt,value
2022-12-17T00:01:52.566Z,99955.81
2022-12-17T00:05:13.373Z,99944.47
2022-12-17T00:08:34.096Z,99952.91
2022-12-17T00:11:56.054Z,99919.56
2022-12-17T00:15:17.201Z,99901.59
2022-12-17T00:18:38.959Z,99887.75
2022-12-17T00:21:59.593Z,99897.78
2022-12-17T00:25:20.316Z,99907.31
2022-12-17T00:28:41.172Z,99913.53
2022-12-17T00:32:02.367Z,99909.47
2022-12-17T00:35:23.687Z,99922.25
2022-12-17T00:38:44.611Z,99895.75
2022-12-17T00:42:05.418Z,99921.06
2022-12-17T00:45:26.830Z,99904.94
2022-12-17T00:48:48.050Z,99883.59
2022-12-17T00:52:08.700Z,99901.84
2022-12-17T00:55:29.487Z,99897.97
2022-12-17T00:58:50.379Z,99897.84
2022-12-17T01:02:11.630Z,99882.50
2022-12-17T01:05:33.236Z,99890.00
2022-12-17T01:08:53.895Z,99874.50
2022-12-17T01:12:17.320Z,99870.84
2022-12-17T01:15:38.139Z,99882.28
2022-12-17T01:19:00.218Z,99885.22
2022-12-17T01:22:21.365Z,99908.31
2022-12-17T01:25:42.506Z,99917.56
2022-12-17T01:29:03.232Z,99946.44
2022-12-17T01:32:23.948Z,99963.81
2022-12-17T01:35:45.139Z,99919.06
2022-12-17T01:39:05.923Z,99924.84
2022-12-17T01:42:32.668Z,99918.47
2022-12-17T01:45:59.578Z,99948.06
2022-12-17T01:49:20.643Z,99961.69
2022-12-17T01:52:41.800Z,99956.91
2022-12-17T01:56:02.985Z,99932.66
2022-12-17T01:59:24.869Z,99938.28
2022-12-17T02:02:46.031Z,99940.50
2022-12-17T02:06:30.100Z,99947.50
2022-12-17T02:10:20.342Z,99980.94
2022-12-17T02:13:46.396Z,99962.94
2022-12-17T02:17:16.510Z,99968.59
2022-12-17T02:20:56.080Z,99998.28
2022-12-17T02:24:39.150Z,100004.66
2022-12-17T02:28:00.693Z,99987.03
2022-12-17T02:31:21.679Z,99965.91
2022-12-17T02:34:42.706Z,99993.31
2022-12-17T02:38:06.297Z,99985.97
2022-12-17T02:41:40.147Z,99992.69
2022-12-17T02:45:03.536Z,99979.28
2022-12-17T02:48:25.963Z,99976.75
2022-12-17T02:51:48.065Z,99975.59
2022-12-17T02:55:08.989Z,99955.19
2022-12-17T02:58:30.467Z,99981.22
2022-12-17T03:01:54.298Z,99990.25
2022-12-17T03:05:43.381Z,99995.19
2022-12-17T03:08:56.117Z,99980.38
2022-12-17T03:12:17.096Z,99983.25
2022-12-17T03:15:37.808Z,99994.38
2022-12-17T03:18:58.528Z,100005.44
2022-12-17T03:22:19.332Z,100003.06
2022-12-17T03:25:40.078Z,100011.63
2022-12-17T03:29:01.265Z,99999.84
2022-12-17T03:32:23.397Z,99997.22
2022-12-17T03:35:43.984Z,100001.91
2022-12-17T03:39:04.596Z,100004.75
2022-12-17T03:42:25.345Z,99982.03
2022-12-17T03:45:46.026Z,99995.69
2022-12-17T03:49:06.817Z,99984.91
2022-12-17T03:52:28.139Z,100005.03
2022-12-17T03:55:48.799Z,100001.97
2022-12-17T03:59:09.404Z,99996.97
2022-12-17T04:02:30.292Z,100013.09
2022-12-17T04:05:51.177Z,99989.34
2022-12-17T04:09:12.034Z,100026.09
2022-12-17T04:12:34.701Z,100019.03
2022-12-17T04:15:55.579Z,100022.13
2022-12-17T04:19:16.276Z,100007.78
2022-12-17T04:22:37.055Z,100010.09
2022-12-17T04:25:57.767Z,100026.94
2022-12-17T04:29:18.815Z,100006.78
2022-12-17T04:32:39.518Z,100011.81
2022-12-17T04:36:00.286Z,99992.63
2022-12-17T04:39:21.471Z,100017.38
2022-12-17T04:42:42.170Z,100028.06
2022-12-17T04:46:02.855Z,100031.88
2022-12-17T04:49:23.563Z,100008.56
2022-12-17T04:52:44.343Z,100033.28
2022-12-17T04:56:05.570Z,100024.69
2022-12-17T04:59:26.270Z,100044.06
2022-12-17T05:02:47.638Z,100047.16
2022-12-17T05:06:08.528Z,100068.34
2022-12-17T05:09:29.433Z,100051.44
2022-12-17T05:12:50.679Z,100060.81
2022-12-17T05:16:14.926Z,100037.41
2022-12-17T05:19:36.165Z,100069.19
2022-12-17T05:22:56.960Z,100073.13
2022-12-17T05:26:41.750Z,100079.13
2022-12-17T05:30:02.544Z,100073.41
2022-12-17T05:33:24.339Z,100065.94
2022-12-17T05:36:45.624Z,100061.28
2022-12-17T05:40:12.263Z,100066.84
2022-12-17T05:43:33.666Z,100068.38
2022-12-17T05:46:54.693Z,100075.94
2022-12-17T05:50:15.805Z,100074.78
2022-12-17T05:53:37.487Z,100087.31
2022-12-17T05:56:58.529Z,100069.88
2022-12-17T06:00:19.527Z,100087.59
2022-12-17T06:03:40.765Z,100082.97
2022-12-17T06:07:01.811Z,100103.28
2022-12-17T06:10:23.095Z,100106.38
2022-12-17T06:13:43.959Z,100129.28
2022-12-17T06:17:04.971Z,100110.34
2022-12-17T06:20:26.294Z,100125.41
2022-12-17T06:23:47.132Z,100123.56
2022-12-17T06:27:08.287Z,100113.03
2022-12-17T06:30:29.939Z,100130.47
2022-12-17T06:33:50.594Z,100149.97
2022-12-17T06:37:11.384Z,100157.19
2022-12-17T06:40:32.115Z,100141.09
2022-12-17T06:43:53.027Z,100142.47
2022-12-17T06:47:13.672Z,100156.00
2022-12-17T06:50:34.938Z,100188.88
2022-12-17T06:53:59.479Z,100174.28
2022-12-17T06:57:20.205Z,100188.88
2022-12-17T07:00:40.980Z,100183.66
2022-12-17T07:04:01.792Z,100189.94
2022-12-17T07:07:22.427Z,100206.63
2022-12-17T07:10:43.417Z,100226.94
2022-12-17T07:14:04.117Z,100221.00
2022-12-17T07:17:25.037Z,100234.88
2022-12-17T07:20:45.621Z,100242.72
2022-12-17T07:24:06.160Z,100266.50
2022-12-17T07:27:27.168Z,100286.63
2022-12-17T07:30:52.633Z,100270.47
2022-12-17T07:34:16.416Z,100275.16
2022-12-17T07:37:37.624Z,100260.00
2022-12-17T07:40:58.888Z,100272.69
2022-12-17T07:44:19.594Z,100269.78
2022-12-17T07:47:40.329Z,100247.88
2022-12-17T07:51:01.344Z,100252.75
2022-12-17T07:54:22.408Z,100256.94
2022-12-17T07:57:43.847Z,100261.63
2022-12-17T08:01:04.773Z,100289.56
2022-12-17T08:04:25.637Z,100291.38
2022-12-17T08:07:46.912Z,100290.59
2022-12-17T08:11:08.136Z,100316.91
2022-12-17T08:14:28.868Z,100321.50
2022-12-17T08:17:49.624Z,100314.88
2022-12-17T08:21:10.427Z,100327.63
2022-12-17T08:24:31.236Z,100345.88
2022-12-17T08:27:51.952Z,100336.69
2022-12-17T08:31:12.786Z,100352.56
2022-12-17T08:34:33.535Z,100348.81
2022-12-17T08:37:54.739Z,100347.66
2022-12-17T08:41:18.775Z,100349.44
2022-12-17T08:44:39.804Z,100381.41
2022-12-17T08:48:03.922Z,100386.75
2022-12-17T08:51:25.133Z,100407.13
2022-12-17T08:54:56.506Z,100415.13
2022-12-17T08:58:17.760Z,100423.13
2022-12-17T09:01:38.777Z,100440.25
2022-12-17T09:04:59.601Z,100424.44
2022-12-17T09:08:23.445Z,100411.88
2022-12-17T09:11:44.468Z,100429.44
2022-12-17T09:15:05.310Z,100435.03
2022-12-17T09:18:26.121Z,100430.38
2022-12-17T09:22:08.228Z,100437.69
2022-12-17T09:25:29.013Z,100442.94
2022-12-17T09:28:49.913Z,100440.81
2022-12-17T09:32:10.500Z,100439.28
2022-12-17T09:35:31.838Z,100451.47
2022-12-17T09:38:53.094Z,100441.88
2022-12-17T09:42:22.581Z,100476.38
2022-12-17T09:46:12.904Z,100447.38
2022-12-17T09:49:38.282Z,100480.56
2022-12-17T09:53:00.049Z,100485.78
2022-12-17T09:56:21.746Z,100492.03
2022-12-17T09:59:52.692Z,100482.06
2022-12-17T10:03:13.435Z,100502.84
2022-12-17T10:06:39.953Z,100496.19
2022-12-17T10:10:00.910Z,100513.69
2022-12-17T10:13:29.356Z,100507.81
2022-12-17T10:16:53.240Z,100521.22
2022-12-17T10:20:14.275Z,100525.59
2022-12-17T10:23:49.588Z,100528.25
2022-12-17T10:27:27.405Z,100540.94
2022-12-17T10:30:49.863Z,100544.69
2022-12-17T10:34:15.181Z,100536.97
2022-12-17T10:37:39.740Z,100542.38
2022-12-17T10:41:00.823Z,100560.75
2022-12-17T10:44:21.567Z,100557.06
2022-12-17T10:47:46.173Z,100560.66
2022-12-17T10:51:07.474Z,100558.84
2022-12-17T10:54:36.311Z,100600.06
2022-12-17T10:57:57.837Z,100579.19
2022-12-17T11:01:20.195Z,100604.44
2022-12-17T11:04:45.961Z,100611.91
2022-12-17T11:08:07.349Z,100612.47
2022-12-17T11:11:30.167Z,100600.31
2022-12-17T11:14:55.302Z,100584.91
2022-12-17T11:18:16.671Z,100623.16
2022-12-17T11:21:45.050Z,100621.38
2022-12-17T11:25:22.661Z,100617.50
2022-12-17T11:28:46.480Z,100610.16
2022-12-17T11:32:28.051Z,100617.97
2022-12-17T11:36:16.116Z,100640.88
2022-12-17T11:39:51.498Z,100642.59
2022-12-17T11:43:30.223Z,100633.06
2022-12-17T11:47:12.603Z,100661.38
2022-12-17T11:50:46.113Z,100665.63
2022-12-17T11:54:42.636Z,100696.59
2022-12-17T11:58:31.655Z,100683.78
2022-12-17T12:02:00.947Z,100710.25
2022-12-17T12:05:35.072Z,100693.88
2022-12-17T12:09:03.347Z,100703.84
2022-12-17T12:12:46.059Z,100737.84
2022-12-17T12:16:18.276Z,100740.47
2022-12-17T12:19:58.746Z,100736.22
2022-12-17T12:23:45.102Z,100749.66
2022-12-17T12:27:39.176Z,100759.41
2022-12-17T12:31:07.152Z,100768.94
2022-12-17T12:34:45.291Z,100760.81
2022-12-17T12:38:06.579Z,100769.56
2022-12-17T12:41:43.078Z,100748.72
2022-12-17T12:45:06.427Z,100782.69
2022-12-17T12:48:33.418Z,100791.78
2022-12-17T12:51:55.687Z,100790.28
2022-12-17T12:55:16.693Z,100776.25
2022-12-17T12:58:46.839Z,100811.66
2022-12-17T13:02:07.534Z,100809.06
2022-12-17T13:05:34.901Z,100815.63
2022-12-17T13:08:38.053Z,100819.84
2022-12-17T13:11:44.810Z,100829.00
2022-12-17T13:15:10.847Z,100834.50
2022-12-17T13:18:21.454Z,100842.38
2022-12-17T13:21:27.048Z,100835.28
2022-12-17T13:24:29.935Z,100856.50
2022-12-17T13:27:39.205Z,100837.13
2022-12-17T13:30:42.154Z,100854.41
2022-12-17T13:33:46.607Z,100880.09
2022-12-17T13:37:15.023Z,100891.34
2022-12-17T13:40:17.534Z,100890.56
2022-12-17T13:43:21.791Z,100890.03
2022-12-17T13:46:25.709Z,100897.34
2022-12-17T13:49:30.095Z,100884.25
2022-12-17T13:52:34.562Z,100880.56
2022-12-17T13:55:38.287Z,100895.00
2022-12-17T13:58:42.898Z,100925.66
2022-12-17T14:01:50.610Z,100938.19
2022-12-17T14:04:54.090Z,100960.44
2022-12-17T14:08:01.510Z,100960.72
2022-12-17T14:11:23.216Z,100960.16
2022-12-17T14:14:47.010Z,100957.00
2022-12-17T14:17:50.082Z,100985.56
2022-12-17T14:20:53.586Z,101003.91
2022-12-17T14:23:56.554Z,101004.16
2022-12-17T14:27:00.680Z,101008.31
2022-12-17T14:30:21.607Z,100995.22
2022-12-17T14:33:32.375Z,101005.19
2022-12-17T14:36:37.355Z,101014.34
2022-12-17T14:39:44.412Z,101007.06
2022-12-17T14:42:47.086Z,100985.81
2022-12-17T14:46:12.759Z,101017.81
2022-12-17T14:49:19.111Z,101015.69
2022-12-17T14:52:35.684Z,101027.22
2022-12-17T14:55:57.252Z,101001.50
2022-12-17T14:58:59.735Z,101035.34
2022-12-17T15:02:15.198Z,101026.16
2022-12-17T15:05:17.786Z,101021.69
2022-12-17T15:08:20.741Z,101042.91
2022-12-17T15:11:23.544Z,101045.53
2022-12-17T15:14:26.102Z,101048.09
2022-12-17T15:17:28.503Z,101073.28
2022-12-17T15:20:31.327Z,101076.09
2022-12-17T15:23:33.799Z,101089.97
2022-12-17T15:26:36.229Z,101105.19
2022-12-17T15:29:38.672Z,101097.84
2022-12-17T15:32:41.451Z,101101.44
2022-12-17T15:35:43.940Z,101093.00
2022-12-17T15:38:46.460Z,101123.44
2022-12-17T15:42:09.465Z,101137.03
2022-12-17T15:45:12.068Z,101145.69
2022-12-17T15:48:19.601Z,101147.38
2022-12-17T15:51:23.547Z,101174.59
2022-12-17T15:54:25.976Z,101160.84
2022-12-17T15:57:28.368Z,101149.75
2022-12-17T16:00:30.881Z,101162.53
2022-12-17T16:03:33.642Z,101149.19
2022-12-17T16:06:36.119Z,101170.38
2022-12-17T16:09:38.815Z,101149.28
2022-12-17T16:12:41.879Z,101191.31
2022-12-17T16:15:44.366Z,101193.13
2022-12-17T16:18:50.044Z,101215.66
2022-12-17T16:21:52.830Z,101204.81
2022-12-17T16:24:55.603Z,101219.81
2022-12-17T16:27:58.332Z,101232.13
2022-12-17T16:31:06.142Z,101211.03
2022-12-17T16:34:12.272Z,101209.91
2022-12-17T16:37:14.686Z,101222.78
2022-12-17T16:40:17.289Z,101234.06
2022-12-17T16:43:19.969Z,101235.47
2022-12-17T16:46:31.050Z,101235.13
2022-12-17T16:49:33.641Z,101231.22
2022-12-17T16:52:36.365Z,101229.25
2022-12-17T16:55:49.657Z,101245.69
2022-12-17T16:58:52.727Z,101244.13
2022-12-17T17:01:57.169Z,101251.72
2022-12-17T17:04:59.735Z,101267.81
2022-12-17T17:08:02.443Z,101244.13
2022-12-17T17:11:19.357Z,101254.88
2022-12-17T17:14:21.813Z,101262.72
2022-12-17T17:17:55.719Z,101275.91
2022-12-17T17:20:46.672Z,101279.31
2022-12-17T17:23:57.330Z,101256.88
2022-12-17T17:26:59.867Z,101289.53
2022-12-17T17:30:03.952Z,101293.28
2022-12-17T17:33:06.687Z,101290.19
2022-12-17T17:36:14.837Z,101270.69
2022-12-17T17:39:17.399Z,101291.81
2022-12-17T17:42:19.861Z,101277.38
2022-12-17T17:45:22.345Z,101306.97
2022-12-17T17:48:24.820Z,101298.94
2022-12-17T17:52:08.492Z,101321.50
2022-12-17T17:55:02.355Z,101314.69
2022-12-17T17:58:04.822Z,101324.84
2022-12-17T18:01:08.735Z,101313.69
2022-12-17T18:04:13.266Z,101333.13
2022-12-17T18:07:25.271Z,101354.00
2022-12-17T18:10:29.116Z,101358.81
2022-12-17T18:13:50.816Z,101354.94
2022-12-17T18:16:56.297Z,101384.31
2022-12-17T18:19:58.729Z,101359.63
2022-12-17T18:23:01.120Z,101382.78
2022-12-17T18:26:09.479Z,101390.94
2022-12-17T18:29:16.312Z,101395.09
2022-12-17T18:32:18.899Z,101409.41
2022-12-17T18:35:21.273Z,101412.50
2022-12-17T18:38:24.117Z,101405.22
2022-12-17T18:41:45.383Z,101420.09
2022-12-17T18:44:47.845Z,101435.53
2022-12-17T18:47:50.564Z,101427.53
2022-12-17T18:50:52.952Z,101452.06
2022-12-17T18:53:59.580Z,101444.94
2022-12-17T18:57:02.560Z,101455.06
2022-12-17T19:00:06.024Z,101461.56
2022-12-17T19:03:10.225Z,101472.81
2022-12-17T19:06:12.940Z,101459.69
2022-12-17T19:09:23.550Z,101462.97
2022-12-17T19:12:26.160Z,101474.44
2022-12-17T19:15:28.490Z,101487.19
2022-12-17T19:18:31.014Z,101494.28
2022-12-17T19:21:34.211Z,101493.75
2022-12-17T19:24:36.882Z,101488.78
2022-12-17T19:27:39.283Z,101503.28
2022-12-17T19:30:41.827Z,101472.41
2022-12-17T19:33:44.196Z,101512.53
2022-12-17T19:36:47.586Z,101504.09
2022-12-17T19:39:50.471Z,101497.97
2022-12-17T19:42:56.478Z,101532.41
2022-12-17T19:46:06.071Z,101519.94
2022-12-17T19:49:11.336Z,101538.84
2022-12-17T19:52:13.762Z,101547.94
2022-12-17T19:55:17.806Z,101546.84
2022-12-17T19:58:20.746Z,101542.19
2022-12-17T20:01:28.231Z,101546.59
2022-12-17T20:04:31.103Z,101558.97
2022-12-17T20:07:33.666Z,101572.00
2022-12-17T20:10:36.194Z,101567.84
2022-12-17T20:13:38.632Z,101580.59
2022-12-17T20:16:46.764Z,101584.03
2022-12-17T20:19:49.914Z,101588.91
2022-12-17T20:22:52.367Z,101592.75
2022-12-17T20:26:05.450Z,101592.78
2022-12-17T20:29:08.419Z,101614.56
2022-12-17T20:32:10.958Z,101611.28
2022-12-17T20:35:13.756Z,101615.78
2022-12-17T20:38:16.164Z,101603.09
2022-12-17T20:41:26.155Z,101632.38
2022-12-17T20:44:28.947Z,101625.22
2022-12-17T20:47:31.429Z,101629.75
2022-12-17T20:50:33.946Z,101640.19
2022-12-17T20:53:36.639Z,101624.66
2022-12-17T20:56:39.965Z,101658.69
2022-12-17T20:59:42.403Z,101657.91
2022-12-17T21:02:45.296Z,101642.78
2022-12-17T21:05:47.743Z,101667.28
2022-12-17T21:08:52.266Z,101671.63
2022-12-17T21:11:55.132Z,101664.47
2022-12-17T21:14:57.580Z,101663.78
2022-12-17T21:17:59.996Z,101665.94
2022-12-17T21:21:08.461Z,101702.59
2022-12-17T21:24:11.010Z,101685.25
2022-12-17T21:27:15.127Z,101680.78
2022-12-17T21:30:22.105Z,101710.88
2022-12-17T21:33:24.719Z,101717.91
2022-12-17T21:36:28.418Z,101710.78
2022-12-17T21:39:30.903Z,101721.09
2022-12-17T21:42:51.586Z,101730.41
2022-12-17T21:45:56.659Z,101724.94
2022-12-17T21:49:00.419Z,101717.38
2022-12-17T21:52:02.954Z,101741.53
2022-12-17T21:55:05.737Z,101740.84
2022-12-17T21:58:08.446Z,101715.16
2022-12-17T22:01:18.733Z,101752.06
2022-12-17T22:04:22.082Z,101752.06
2022-12-17T22:07:27.190Z,101749.00
2022-12-17T22:10:51.158Z,101763.84
2022-12-17T22:14:08.902Z,101765.47
2022-12-17T22:17:11.887Z,101757.16
2022-12-17T22:20:16.504Z,101746.94
2022-12-17T22:23:18.876Z,101767.94
2022-12-17T22:26:21.659Z,101756.34
2022-12-17T22:29:42.323Z,101787.72
2022-12-17T22:33:00.114Z,101796.44
2022-12-17T22:38:29.383Z,101773.81
2022-12-17T22:42:01.031Z,101789.16
2022-12-17T22:44:42.958Z,101783.81
2022-12-17T22:46:32.399Z,101808.19
2022-12-17T22:49:35.043Z,101805.38
2022-12-17T22:52:38.049Z,101783.81
2022-12-17T22:55:40.752Z,101805.47
2022-12-17T22:58:43.711Z,101796.69
2022-12-17T23:01:46.514Z,101807.97
2022-12-17T23:04:49.030Z,101799.69
2022-12-17T23:07:52.142Z,101825.78
2022-12-17T23:10:54.631Z,101830.50
2022-12-17T23:13:57.919Z,101825.59
2022-12-17T23:17:00.357Z,101839.38
2022-12-17T23:20:03.458Z,101832.91
2022-12-17T23:23:05.916Z,101840.63
2022-12-17T23:26:09.838Z,101859.63
2022-12-17T23:29:19.149Z,101851.44
2022-12-17T23:32:22.148Z,101852.00
2022-12-17T23:35:24.530Z,101845.34
2022-12-17T23:38:26.949Z,101856.81
2022-12-17T23:41:30.583Z,101867.97
2022-12-17T23:44:32.963Z,101880.13
2022-12-17T23:47:35.414Z,101861.25
2022-12-17T23:50:38.056Z,101880.56
2022-12-17T23:53:41.021Z,101868.19
2022-12-17T23:56:44.897Z,101876.38
2022-12-17T23:59:47.304Z,101886.16
